createdAt,value
2019-01-22T00:01:54.233Z,48.77
2019-01-22T00:04:21.609Z,67.73
2019-01-22T00:06:48.967Z,57.20
2019-01-22T00:09:16.299Z,44.53
2019-01-22T00:11:43.728Z,66.40
2019-01-22T00:14:11.104Z,49.80
2019-01-22T00:16:38.465Z,56.83
2019-01-22T00:19:05.839Z,54.60
2019-01-22T00:21:33.209Z,49.80
2019-01-22T00:24:00.667Z,75.07
2019-01-22T00:26:28.021Z,45.70
2019-01-22T00:28:55.307Z,47.87
2019-01-22T00:31:22.673Z,54.37
2019-01-22T00:33:49.957Z,61.53
2019-01-22T00:36:17.697Z,48.90
2019-01-22T00:38:44.991Z,59.07
2019-01-22T00:41:12.365Z,44.40
2019-01-22T00:43:39.790Z,53.30
2019-01-22T00:46:07.538Z,52.20
2019-01-22T00:48:34.961Z,55.47
2019-01-22T00:51:02.266Z,52.13
2019-01-22T00:53:29.627Z,50.27
2019-01-22T00:55:57.382Z,60.98
2019-01-22T00:58:24.745Z,56.63
2019-01-22T01:00:52.629Z,38.15
2019-01-22T01:03:20.007Z,73.05
2019-01-22T01:05:47.378Z,44.20
2019-01-22T01:08:14.806Z,43.57
2019-01-22T01:10:42.551Z,45.57
2019-01-22T01:13:10.213Z,38.85
2019-01-22T01:15:37.589Z,52.00
2019-01-22T01:18:05.129Z,53.92
2019-01-22T01:20:32.588Z,55.30
2019-01-22T01:23:00.016Z,55.90
2019-01-22T01:25:27.725Z,50.00
2019-01-22T01:27:55.386Z,53.27
2019-01-22T01:30:23.846Z,47.88
2019-01-22T01:32:52.102Z,55.45
2019-01-22T01:35:19.845Z,52.75
2019-01-22T01:37:47.132Z,53.40
2019-01-22T01:40:15.409Z,48.10
2019-01-22T01:42:42.839Z,45.50
2019-01-22T01:45:10.404Z,52.93
2019-01-22T01:47:38.133Z,59.57
2019-01-22T01:50:07.029Z,55.70
2019-01-22T01:52:34.802Z,62.88
2019-01-22T01:55:02.226Z,47.20
2019-01-22T01:57:29.927Z,61.13
2019-01-22T01:59:57.282Z,69.30
2019-01-22T02:02:24.678Z,47.55
2019-01-22T02:04:52.533Z,49.67
2019-01-22T02:07:19.991Z,56.15
2019-01-22T02:09:47.729Z,61.98
2019-01-22T02:12:15.782Z,50.00
2019-01-22T02:14:44.609Z,62.93
2019-01-22T02:17:16.249Z,52.80
2019-01-22T02:19:48.068Z,74.60
2019-01-22T02:22:22.609Z,66.77
2019-01-22T02:25:03.708Z,52.07
2019-01-22T02:27:33.033Z,61.37
2019-01-22T02:30:11.038Z,48.80
2019-01-22T02:32:46.214Z,52.87
2019-01-22T02:35:18.045Z,53.23
2019-01-22T02:37:47.452Z,61.77
2019-01-22T02:40:25.522Z,53.28
2019-01-22T02:43:03.446Z,52.55
2019-01-22T02:45:48.693Z,49.58
2019-01-22T02:48:17.517Z,59.27
2019-01-22T02:51:04.513Z,50.73
2019-01-22T02:53:38.703Z,58.68
2019-01-22T02:56:04.018Z,61.18
2019-01-22T02:58:32.921Z,68.33
2019-01-22T03:01:18.325Z,55.30
2019-01-22T03:04:02.462Z,58.08
2019-01-22T03:06:47.534Z,62.75
2019-01-22T03:09:16.424Z,55.25
2019-01-22T03:11:51.345Z,49.18
2019-01-22T03:14:20.221Z,48.33
2019-01-22T03:17:04.286Z,53.90
2019-01-22T03:19:33.199Z,45.15
2019-01-22T03:22:14.180Z,63.27
2019-01-22T03:24:52.040Z,59.37
2019-01-22T03:27:23.642Z,59.55
2019-01-22T03:30:04.643Z,58.28
2019-01-22T03:32:36.525Z,63.17
2019-01-22T03:35:22.215Z,54.88
2019-01-22T03:37:57.250Z,60.97
2019-01-22T03:40:26.145Z,55.53
2019-01-22T03:42:54.977Z,56.58
2019-01-22T03:45:26.509Z,62.93
2019-01-22T03:47:55.346Z,43.48
2019-01-22T03:50:27.301Z,60.20
2019-01-22T03:52:56.156Z,48.13
2019-01-22T03:55:28.000Z,46.02
2019-01-22T03:57:55.664Z,59.95
2019-01-22T04:00:23.028Z,59.35
2019-01-22T04:02:50.537Z,37.50
2019-01-22T04:05:17.847Z,56.10
2019-01-22T04:07:45.145Z,51.10
2019-01-22T04:10:14.042Z,54.73
2019-01-22T04:12:41.409Z,49.43
2019-01-22T04:15:10.674Z,49.18
2019-01-22T04:17:38.346Z,45.73
2019-01-22T04:20:07.258Z,43.95
2019-01-22T04:22:34.641Z,44.10
2019-01-22T04:25:03.531Z,50.17
2019-01-22T04:27:47.694Z,46.63
2019-01-22T04:30:16.523Z,59.38
2019-01-22T04:32:45.369Z,65.92
2019-01-22T04:35:14.211Z,50.43
2019-01-22T04:37:43.037Z,48.80
2019-01-22T04:40:11.873Z,53.87
2019-01-22T04:42:57.096Z,53.33
2019-01-22T04:45:31.652Z,56.70
2019-01-22T04:48:06.393Z,47.15
2019-01-22T04:50:35.289Z,49.10
2019-01-22T04:53:22.194Z,44.75
2019-01-22T04:55:54.083Z,46.53
2019-01-22T04:58:22.993Z,48.73
2019-01-22T05:00:51.842Z,54.95
2019-01-22T05:03:20.750Z,49.20
2019-01-22T05:05:55.922Z,60.20
2019-01-22T05:08:30.824Z,54.48
2019-01-22T05:11:02.646Z,49.23
2019-01-22T05:13:37.217Z,55.85
2019-01-22T05:16:15.019Z,50.80
2019-01-22T05:18:49.546Z,53.97
2019-01-22T05:21:35.358Z,53.43
2019-01-22T05:24:19.434Z,58.15
2019-01-22T05:26:51.321Z,69.57
2019-01-22T05:29:29.082Z,56.63
2019-01-22T05:31:57.957Z,63.17
2019-01-22T05:34:29.776Z,56.87
2019-01-22T05:37:01.786Z,61.47
2019-01-22T05:39:47.026Z,66.80
2019-01-22T05:42:15.945Z,58.43
2019-01-22T05:44:47.900Z,71.92
2019-01-22T05:47:25.674Z,56.33
2019-01-22T05:50:13.111Z,59.80
2019-01-22T05:53:00.266Z,59.27
2019-01-22T05:55:29.090Z,59.13
2019-01-22T05:58:03.793Z,60.20
2019-01-22T06:00:32.629Z,58.13
2019-01-22T06:03:01.048Z,60.70
2019-01-22T06:05:46.547Z,61.90
2019-01-22T06:08:27.433Z,51.00
2019-01-22T06:10:56.262Z,56.17
2019-01-22T06:13:25.083Z,62.20
2019-01-22T06:15:59.920Z,51.83
2019-01-22T06:18:31.421Z,54.40
2019-01-22T06:21:22.470Z,60.63
2019-01-22T06:24:08.108Z,53.63
2019-01-22T06:26:43.129Z,54.87
2019-01-22T06:29:11.953Z,59.60
2019-01-22T06:31:43.461Z,59.67
2019-01-22T06:34:15.341Z,55.47
2019-01-22T06:36:50.021Z,55.07
2019-01-22T06:39:18.840Z,49.90
2019-01-22T06:41:50.666Z,66.67
2019-01-22T06:44:19.513Z,50.63
2019-01-22T06:46:54.075Z,59.73
2019-01-22T06:49:25.624Z,75.53
2019-01-22T06:52:03.418Z,58.30
2019-01-22T06:54:32.266Z,57.00
2019-01-22T06:57:16.024Z,49.93
2019-01-22T07:00:00.211Z,65.40
2019-01-22T07:02:41.102Z,60.80
2019-01-22T07:05:09.939Z,58.77
2019-01-22T07:07:44.738Z,53.90
2019-01-22T07:10:13.595Z,49.30
2019-01-22T07:12:45.343Z,56.70
2019-01-22T07:15:29.407Z,52.95
2019-01-22T07:18:01.334Z,57.10
2019-01-22T07:20:36.239Z,54.67
2019-01-22T07:23:05.057Z,53.37
2019-01-22T07:25:36.581Z,61.30
2019-01-22T07:28:11.610Z,63.17
2019-01-22T07:30:50.013Z,60.33
2019-01-22T07:33:35.591Z,53.00
2019-01-22T07:36:13.245Z,67.27
2019-01-22T07:38:44.821Z,66.87
2019-01-22T07:41:13.643Z,61.43
2019-01-22T07:43:45.492Z,53.30
2019-01-22T07:46:31.003Z,58.43
2019-01-22T07:48:59.820Z,49.27
2019-01-22T07:51:31.329Z,63.23
2019-01-22T07:54:03.077Z,54.27
2019-01-22T07:56:34.614Z,58.13
2019-01-22T07:59:03.430Z,63.27
2019-01-22T08:01:32.653Z,51.43
2019-01-22T08:04:14.957Z,63.30
2019-01-22T08:06:51.182Z,66.17
2019-01-22T08:09:19.998Z,56.57
2019-01-22T08:11:51.481Z,60.87
2019-01-22T08:14:20.316Z,80.83
2019-01-22T08:17:05.958Z,52.97
2019-01-22T08:19:40.516Z,64.07
2019-01-22T08:22:18.427Z,75.70
2019-01-22T08:24:49.926Z,74.53
2019-01-22T08:27:29.705Z,71.27
2019-01-22T08:30:06.837Z,55.57
2019-01-22T08:32:38.392Z,67.00
2019-01-22T08:35:19.045Z,62.50
2019-01-22T08:37:47.870Z,62.27
2019-01-22T08:40:18.014Z,63.57
2019-01-22T08:43:02.361Z,61.63
2019-01-22T08:45:34.064Z,60.67
2019-01-22T08:48:03.054Z,66.30
2019-01-22T08:50:34.521Z,68.03
2019-01-22T08:53:21.344Z,67.47
2019-01-22T08:56:05.378Z,71.80
2019-01-22T08:58:34.231Z,61.30
2019-01-22T09:01:03.437Z,67.70
2019-01-22T09:03:38.310Z,64.13
2019-01-22T09:06:16.096Z,68.70
2019-01-22T09:08:54.008Z,52.90
2019-01-22T09:11:35.034Z,50.10
2019-01-22T09:14:04.256Z,55.27
2019-01-22T09:16:33.450Z,54.73
2019-01-22T09:19:05.200Z,53.60
2019-01-22T09:21:49.284Z,59.17
2019-01-22T09:24:24.101Z,54.03
2019-01-22T09:26:55.673Z,61.30
2019-01-22T09:29:24.511Z,50.27
2019-01-22T09:31:56.362Z,48.43
2019-01-22T09:34:25.242Z,56.70
2019-01-22T09:36:54.077Z,72.27
2019-01-22T09:39:21.358Z,53.20
2019-01-22T09:41:48.637Z,66.93
2019-01-22T09:44:15.949Z,55.80
2019-01-22T09:46:43.325Z,57.67
2019-01-22T09:49:10.697Z,72.80
2019-01-22T09:51:37.980Z,69.30
2019-01-22T09:54:05.658Z,77.20
2019-01-22T09:56:32.945Z,69.20
2019-01-22T09:59:00.629Z,67.57
2019-01-22T10:01:28.354Z,66.20
2019-01-22T10:03:55.651Z,57.63
2019-01-22T10:06:23.314Z,77.10
2019-01-22T10:08:50.626Z,75.67
2019-01-22T10:11:17.905Z,63.47
2019-01-22T10:13:48.278Z,95.33
2019-01-22T10:16:14.993Z,65.37
2019-01-22T10:18:42.663Z,77.03
2019-01-22T10:21:10.010Z,72.23
2019-01-22T10:23:37.311Z,57.90
2019-01-22T10:26:04.652Z,72.43
2019-01-22T10:28:31.961Z,67.00
2019-01-22T10:30:59.305Z,91.33
2019-01-22T10:33:26.608Z,80.27
2019-01-22T10:35:53.889Z,82.97
2019-01-22T10:38:21.204Z,74.80
2019-01-22T10:40:48.481Z,77.87
2019-01-22T10:43:15.757Z,75.70
2019-01-22T10:45:43.063Z,93.20
2019-01-22T10:48:10.347Z,77.87
2019-01-22T10:50:37.714Z,70.40
2019-01-22T10:53:05.058Z,70.40
2019-01-22T10:55:36.367Z,64.77
2019-01-22T10:58:01.820Z,81.57
2019-01-22T11:00:30.190Z,69.53
2019-01-22T11:02:57.944Z,83.13
2019-01-22T11:05:29.511Z,66.90
2019-01-22T11:07:56.797Z,64.47
2019-01-22T11:10:24.093Z,70.73
2019-01-22T11:12:51.382Z,85.93
2019-01-22T11:15:18.753Z,80.27
2019-01-22T11:17:46.040Z,65.97
2019-01-22T11:20:15.092Z,73.47
2019-01-22T11:22:42.512Z,73.93
2019-01-22T11:25:11.658Z,77.07
2019-01-22T11:27:39.025Z,73.67
2019-01-22T11:30:08.214Z,79.07
2019-01-22T11:32:35.490Z,77.03
2019-01-22T11:35:02.793Z,89.52
2019-01-22T11:37:30.079Z,82.47
2019-01-22T11:39:57.370Z,76.70
2019-01-22T11:42:25.103Z,93.53
2019-01-22T11:44:52.401Z,74.23
2019-01-22T11:47:19.682Z,73.03
2019-01-22T11:49:47.277Z,74.13
2019-01-22T11:52:14.562Z,90.40
2019-01-22T11:54:41.866Z,99.03
2019-01-22T11:57:09.558Z,86.97
2019-01-22T11:59:37.223Z,95.60
2019-01-22T12:02:04.692Z,97.30
2019-01-22T12:04:31.973Z,95.07
2019-01-22T12:06:59.273Z,83.30
2019-01-22T12:09:26.571Z,88.00
2019-01-22T12:11:54.250Z,89.67
2019-01-22T12:14:21.698Z,77.40
2019-01-22T12:16:48.978Z,84.93
2019-01-22T12:19:16.274Z,81.07
2019-01-22T12:21:43.553Z,89.47
2019-01-22T12:24:10.989Z,72.37
2019-01-22T12:26:38.673Z,87.00
2019-01-22T12:29:06.109Z,95.77
2019-01-22T12:31:33.609Z,101.40
2019-01-22T12:34:00.910Z,85.33
2019-01-22T12:36:28.310Z,84.20
2019-01-22T12:38:55.614Z,87.33
2019-01-22T12:41:22.962Z,74.30
2019-01-22T12:43:50.333Z,90.50
2019-01-22T12:46:17.621Z,77.67
2019-01-22T12:48:45.290Z,78.63
2019-01-22T12:51:12.958Z,92.77
2019-01-22T12:53:40.622Z,81.37
2019-01-22T12:56:07.903Z,77.37
2019-01-22T12:58:35.206Z,90.73
2019-01-22T13:01:02.485Z,82.97
2019-01-22T13:03:29.791Z,81.17
2019-01-22T13:05:57.530Z,80.27
2019-01-22T13:08:24.834Z,84.00
2019-01-22T13:10:52.438Z,90.57
2019-01-22T13:13:19.712Z,87.90
2019-01-22T13:15:47.081Z,86.60
2019-01-22T13:18:14.431Z,83.93
2019-01-22T13:20:41.799Z,85.37
2019-01-22T13:23:09.142Z,98.63
2019-01-22T13:25:36.517Z,89.90
2019-01-22T13:28:03.969Z,95.27
2019-01-22T13:30:31.638Z,81.67
2019-01-22T13:32:59.380Z,87.50
2019-01-22T13:35:26.692Z,71.43
2019-01-22T13:37:54.045Z,76.53
2019-01-22T13:40:21.347Z,97.83
2019-01-22T13:42:48.901Z,82.23
2019-01-22T13:45:17.736Z,95.90
2019-01-22T13:47:45.004Z,78.37
2019-01-22T13:50:14.082Z,96.50
2019-01-22T13:52:41.439Z,99.37
2019-01-22T13:55:12.950Z,90.90
2019-01-22T13:57:40.231Z,84.33
2019-01-22T14:00:11.999Z,96.83
2019-01-22T14:02:39.287Z,79.07
2019-01-22T14:05:07.209Z,77.90
2019-01-22T14:07:34.494Z,83.00
2019-01-22T14:10:01.864Z,72.43
2019-01-22T14:12:30.530Z,77.27
2019-01-22T14:14:57.825Z,72.43
2019-01-22T14:17:25.429Z,60.33
2019-01-22T14:19:52.725Z,76.40
2019-01-22T14:22:23.669Z,66.33
2019-01-22T14:24:49.016Z,66.10
2019-01-22T14:27:16.300Z,72.33
2019-01-22T14:29:43.611Z,64.30
2019-01-22T14:32:11.315Z,68.70
2019-01-22T14:34:38.608Z,83.17
2019-01-22T14:37:05.966Z,65.67
2019-01-22T14:39:33.242Z,77.10
2019-01-22T14:42:00.550Z,84.40
2019-01-22T14:44:27.833Z,78.93
2019-01-22T14:46:55.299Z,70.63
2019-01-22T14:49:22.646Z,70.30
2019-01-22T14:51:49.942Z,65.93
2019-01-22T14:54:17.225Z,72.57
2019-01-22T14:56:44.894Z,64.03
2019-01-22T14:59:12.172Z,70.60
2019-01-22T15:01:39.954Z,76.27
2019-01-22T15:04:07.438Z,68.57
2019-01-22T15:06:34.741Z,69.90
2019-01-22T15:09:02.022Z,74.77
2019-01-22T15:11:29.649Z,73.13
2019-01-22T15:13:57.314Z,80.43
2019-01-22T15:16:24.640Z,70.63
2019-01-22T15:18:51.915Z,76.43
2019-01-22T15:21:19.218Z,77.70
2019-01-22T15:23:46.850Z,69.10
2019-01-22T15:26:14.226Z,64.90
2019-01-22T15:28:41.514Z,69.83
2019-01-22T15:31:09.579Z,60.00
2019-01-22T15:33:36.890Z,66.33
2019-01-22T15:36:04.260Z,70.90
2019-01-22T15:38:31.539Z,79.80
2019-01-22T15:40:58.858Z,65.07
2019-01-22T15:43:26.157Z,56.30
2019-01-22T15:45:53.513Z,61.13
2019-01-22T15:48:20.881Z,68.40
2019-01-22T15:50:49.842Z,75.83
2019-01-22T15:53:17.206Z,64.30
2019-01-22T15:55:48.212Z,66.60
2019-01-22T15:58:13.718Z,63.80
2019-01-22T16:00:41.315Z,85.87
2019-01-22T16:03:09.083Z,76.87
2019-01-22T16:05:36.376Z,70.93
2019-01-22T16:08:03.743Z,68.30
2019-01-22T16:10:31.094Z,78.90
2019-01-22T16:12:58.816Z,82.83
2019-01-22T16:15:26.582Z,82.20
2019-01-22T16:17:54.553Z,72.10
2019-01-22T16:20:25.992Z,81.40
2019-01-22T16:22:53.864Z,78.07
2019-01-22T16:25:21.656Z,83.20
2019-01-22T16:27:49.022Z,72.47
2019-01-22T16:30:17.381Z,78.83
2019-01-22T16:32:44.692Z,75.23
2019-01-22T16:35:13.530Z,85.03
2019-01-22T16:37:40.904Z,64.37
2019-01-22T16:40:09.756Z,67.97
2019-01-22T16:42:37.050Z,73.60
2019-01-22T16:45:05.870Z,82.23
2019-01-22T16:47:33.233Z,60.00
2019-01-22T16:50:00.529Z,73.00
2019-01-22T16:52:27.814Z,84.57
2019-01-22T16:54:55.119Z,69.33
2019-01-22T16:57:22.397Z,66.00
2019-01-22T16:59:49.701Z,60.27
2019-01-22T17:02:17.330Z,58.37
2019-01-22T17:04:45.058Z,64.07
2019-01-22T17:07:12.341Z,78.23
2019-01-22T17:09:39.727Z,70.00
2019-01-22T17:12:07.017Z,82.80
2019-01-22T17:14:34.576Z,57.63
2019-01-22T17:17:01.972Z,75.67
2019-01-22T17:19:29.267Z,66.53
2019-01-22T17:21:56.917Z,72.07
2019-01-22T17:24:24.225Z,57.03
2019-01-22T17:26:51.518Z,63.63
2019-01-22T17:29:18.818Z,69.27
2019-01-22T17:32:04.677Z,59.33
2019-01-22T17:34:33.927Z,76.30
2019-01-22T17:37:01.534Z,73.17
2019-01-22T17:39:28.830Z,79.70
2019-01-22T17:41:56.113Z,77.60
2019-01-22T17:44:23.408Z,84.03
2019-01-22T17:46:51.813Z,64.73
2019-01-22T17:49:19.576Z,67.93
2019-01-22T17:51:46.869Z,68.73
2019-01-22T17:54:14.475Z,73.70
2019-01-22T17:56:41.763Z,71.37
2019-01-22T17:59:09.083Z,69.30
2019-01-22T18:01:36.441Z,72.33
2019-01-22T18:04:03.974Z,70.37
2019-01-22T18:06:31.249Z,67.00
2019-01-22T18:08:58.607Z,66.83
2019-01-22T18:11:25.917Z,77.97
2019-01-22T18:13:53.222Z,93.70
2019-01-22T18:16:20.899Z,72.27
2019-01-22T18:18:48.188Z,78.10
2019-01-22T18:21:15.919Z,64.70
2019-01-22T18:23:43.373Z,60.10
2019-01-22T18:26:10.821Z,57.40
2019-01-22T18:28:38.098Z,63.33
2019-01-22T18:31:05.405Z,55.73
2019-01-22T18:33:32.702Z,70.53
2019-01-22T18:36:00.000Z,64.93
2019-01-22T18:38:27.281Z,60.43
2019-01-22T18:40:54.661Z,65.13
2019-01-22T18:43:21.941Z,57.70
2019-01-22T18:45:49.238Z,62.83
2019-01-22T18:48:16.530Z,76.95
2019-01-22T18:50:43.896Z,64.80
2019-01-22T18:53:11.184Z,66.00
2019-01-22T18:55:38.486Z,62.87
2019-01-22T18:58:05.782Z,59.83
2019-01-22T19:00:33.463Z,70.40
2019-01-22T19:03:00.822Z,59.00
2019-01-22T19:05:28.141Z,65.17
2019-01-22T19:07:55.486Z,64.70
2019-01-22T19:10:26.977Z,70.07
2019-01-22T19:12:54.799Z,69.03
2019-01-22T19:15:23.125Z,81.97
2019-01-22T19:17:50.599Z,83.97
2019-01-22T19:20:18.054Z,78.17
2019-01-22T19:22:45.434Z,69.37
2019-01-22T19:25:20.485Z,365.30
2019-01-22T19:27:47.889Z,83.23
2019-01-22T19:30:16.456Z,70.13
2019-01-22T19:32:44.146Z,86.87
2019-01-22T19:35:11.493Z,97.90
2019-01-22T19:37:38.809Z,82.67
2019-01-22T19:40:07.955Z,84.73
2019-01-22T19:42:35.351Z,81.37
2019-01-22T19:45:02.824Z,88.30
2019-01-22T19:47:30.196Z,67.37
2019-01-22T19:49:57.486Z,78.20
2019-01-22T19:52:24.790Z,85.13
2019-01-22T19:54:52.068Z,80.23
2019-01-22T19:57:19.536Z,85.87
2019-01-22T19:59:46.898Z,97.20
2019-01-22T20:02:14.196Z,117.93
2019-01-22T20:04:41.839Z,91.90
2019-01-22T20:07:09.154Z,91.63
2019-01-22T20:09:36.466Z,102.87
2019-01-22T20:12:03.844Z,90.07
2019-01-22T20:14:31.201Z,92.97
2019-01-22T20:16:58.574Z,96.70
2019-01-22T20:19:26.199Z,91.80
2019-01-22T20:21:53.565Z,96.60
2019-01-22T20:24:20.842Z,87.00
2019-01-22T20:26:48.226Z,90.83
2019-01-22T20:29:15.533Z,121.70
2019-01-22T20:31:42.837Z,101.47
2019-01-22T20:34:10.193Z,105.70
2019-01-22T20:36:37.944Z,106.53
2019-01-22T20:39:06.241Z,117.53
2019-01-22T20:41:33.805Z,153.23
2019-01-22T20:44:01.108Z,161.30
2019-01-22T20:46:28.466Z,159.57
2019-01-22T20:48:55.766Z,145.60
2019-01-22T20:51:23.053Z,163.63
2019-01-22T20:53:50.376Z,151.03
2019-01-22T20:56:17.730Z,172.67
2019-01-22T20:58:45.036Z,201.87
2019-01-22T21:01:12.789Z,166.83
2019-01-22T21:03:40.178Z,145.83
2019-01-22T21:06:07.467Z,171.07
2019-01-22T21:08:35.191Z,174.83
2019-01-22T21:11:02.487Z,170.70
2019-01-22T21:13:29.866Z,157.07
2019-01-22T21:15:57.161Z,189.67
2019-01-22T21:18:24.530Z,178.23
2019-01-22T21:20:51.817Z,177.43
2019-01-22T21:23:19.433Z,178.40
2019-01-22T21:25:46.725Z,176.57
2019-01-22T21:28:14.033Z,194.20
2019-01-22T21:30:41.319Z,177.67
2019-01-22T21:33:09.072Z,183.13
2019-01-22T21:35:36.533Z,174.27
2019-01-22T21:38:04.704Z,192.87
2019-01-22T21:40:31.989Z,174.33
2019-01-22T21:42:59.664Z,173.50
2019-01-22T21:45:28.490Z,170.23
2019-01-22T21:47:55.867Z,151.97
2019-01-22T21:50:23.216Z,175.40
2019-01-22T21:52:50.741Z,164.30
2019-01-22T21:55:19.846Z,162.93
2019-01-22T21:57:47.137Z,183.83
2019-01-22T22:00:18.290Z,179.60
2019-01-22T22:02:45.966Z,158.83
2019-01-22T22:05:13.841Z,159.50
2019-01-22T22:07:41.305Z,165.43
2019-01-22T22:10:10.150Z,212.17
2019-01-22T22:12:37.509Z,185.77
2019-01-22T22:15:06.767Z,158.30
2019-01-22T22:17:34.049Z,163.70
2019-01-22T22:20:01.371Z,175.40
2019-01-22T22:22:28.666Z,172.43
2019-01-22T22:24:55.970Z,167.90
2019-01-22T22:27:23.293Z,166.73
2019-01-22T22:29:50.641Z,148.63
2019-01-22T22:32:17.930Z,312.67
2019-01-22T22:34:45.296Z,172.53
2019-01-22T22:37:12.648Z,159.37
2019-01-22T22:39:39.949Z,154.03
2019-01-22T22:42:07.242Z,151.23
2019-01-22T22:44:34.549Z,161.70
2019-01-22T22:47:02.202Z,145.70
2019-01-22T22:49:29.506Z,172.43
2019-01-22T22:51:57.063Z,183.93
2019-01-22T22:54:24.437Z,171.17
2019-01-22T22:56:51.722Z,146.93
2019-01-22T22:59:19.029Z,173.67
2019-01-22T23:01:46.744Z,554.93
2019-01-22T23:04:14.056Z,165.70
2019-01-22T23:06:41.341Z,174.13
2019-01-22T23:09:10.592Z,146.87
2019-01-22T23:11:37.953Z,147.20
2019-01-22T23:14:05.409Z,145.50
2019-01-22T23:16:32.998Z,152.03
2019-01-22T23:19:00.348Z,168.00
2019-01-22T23:21:27.661Z,177.40
2019-01-22T23:23:55.025Z,140.57
2019-01-22T23:26:22.337Z,141.40
2019-01-22T23:28:49.622Z,168.13
2019-01-22T23:31:17.001Z,147.03
2019-01-22T23:33:44.301Z,160.13
2019-01-22T23:36:11.687Z,145.10
2019-01-22T23:38:38.971Z,179.30
2019-01-22T23:41:06.352Z,154.47
2019-01-22T23:43:34.391Z,142.53
2019-01-22T23:46:02.053Z,147.77
2019-01-22T23:48:29.701Z,156.27
2019-01-22T23:50:57.110Z,159.47
2019-01-22T23:53:24.397Z,151.93
2019-01-22T23:55:51.701Z,153.67
2019-01-22T23:58:19.184Z,141.50
